createdAt,value
2019-05-30T00:04:34.670Z,49.80
2019-05-30T00:09:38.211Z,49.90
2019-05-30T00:14:43.583Z,50.00
2019-05-30T00:19:47.185Z,50.00
2019-05-30T00:24:50.608Z,50.00
2019-05-30T00:29:55.091Z,50.00
2019-05-30T00:34:59.596Z,50.00
2019-05-30T00:40:04.136Z,50.00
2019-05-30T00:45:19.831Z,50.00
2019-05-30T00:50:13.363Z,50.00
2019-05-30T00:55:16.872Z,50.10
2019-05-30T01:00:20.388Z,50.10
2019-05-30T01:05:27.139Z,50.10
2019-05-30T01:10:29.084Z,50.10
2019-05-30T01:15:34.376Z,50.10
2019-05-30T01:20:37.620Z,50.10
2019-05-30T01:25:41.134Z,50.00
2019-05-30T01:30:58.828Z,50.10
2019-05-30T01:35:49.826Z,50.10
2019-05-30T01:40:53.342Z,50.20
2019-05-30T01:45:57.957Z,50.20
2019-05-30T01:51:02.391Z,50.20
2019-05-30T01:56:06.817Z,50.10
2019-05-30T02:01:22.646Z,50.10
2019-05-30T02:06:15.591Z,50.10
2019-05-30T02:11:19.239Z,50.20
2019-05-30T02:16:24.472Z,50.20
2019-05-30T02:21:27.864Z,50.10
2019-05-30T02:26:31.396Z,50.00
2019-05-30T02:31:38.855Z,50.00
2019-05-30T02:36:40.088Z,50.10
2019-05-30T02:41:44.579Z,50.10
2019-05-30T02:46:48.035Z,50.10
2019-05-30T02:51:51.456Z,50.10
2019-05-30T02:56:55.033Z,50.10
2019-05-30T03:02:01.841Z,50.10
2019-05-30T03:07:04.593Z,50.20
2019-05-30T03:12:11.039Z,50.10
2019-05-30T03:17:14.643Z,50.20
2019-05-30T03:22:18.471Z,50.10
2019-05-30T03:27:21.959Z,50.10
2019-05-30T03:37:30.953Z,50.20
2019-05-30T03:42:34.576Z,50.20
2019-05-30T03:47:38.862Z,50.10
2019-05-30T03:52:42.298Z,50.10
2019-05-30T03:58:07.969Z,50.10
2019-05-30T04:03:19.193Z,50.10
2019-05-30T04:08:23.049Z,50.20
2019-05-30T04:13:31.383Z,50.20
2019-05-30T04:18:34.884Z,50.10
2019-05-30T04:23:38.425Z,50.10
2019-05-30T04:28:41.909Z,50.20
2019-05-30T04:33:45.456Z,50.20
2019-05-30T04:38:48.979Z,50.30
2019-05-30T04:43:52.457Z,50.40
2019-05-30T04:48:55.966Z,50.40
2019-05-30T04:53:59.488Z,51.10
2019-05-30T04:59:02.994Z,50.40
2019-05-30T05:04:06.530Z,50.60
2019-05-30T05:09:11.821Z,50.70
2019-05-30T05:14:16.382Z,50.50
2019-05-30T05:19:21.805Z,50.60
2019-05-30T05:24:25.302Z,50.60
2019-05-30T05:29:28.818Z,50.70
2019-05-30T05:34:32.409Z,50.80
2019-05-30T05:39:35.948Z,50.70
2019-05-30T05:44:39.538Z,50.90
2019-05-30T05:49:43.060Z,50.80
2019-05-30T05:54:46.572Z,51.00
2019-05-30T05:59:50.185Z,51.00
2019-05-30T06:04:53.722Z,51.10
2019-05-30T06:09:57.237Z,51.20
2019-05-30T06:15:01.279Z,51.20
2019-05-30T06:20:07.935Z,51.30
2019-05-30T06:25:11.440Z,51.00
2019-05-30T06:30:16.089Z,50.90
2019-05-30T06:35:21.262Z,51.10
2019-05-30T06:40:25.536Z,51.10
2019-05-30T06:45:30.310Z,51.40
2019-05-30T06:50:34.054Z,51.70
2019-05-30T06:55:37.567Z,51.30
2019-05-30T07:00:41.000Z,51.60
2019-05-30T07:05:44.952Z,50.40
2019-05-30T07:10:48.802Z,49.30
2019-05-30T07:15:52.414Z,48.30
2019-05-30T07:20:56.749Z,45.40
2019-05-30T07:26:03.252Z,44.00
2019-05-30T07:31:06.433Z,44.10
2019-05-30T07:36:09.980Z,43.80
2019-05-30T07:41:13.465Z,43.00
2019-05-30T07:46:16.900Z,43.30
2019-05-30T07:51:21.317Z,42.70
2019-05-30T07:56:26.857Z,42.30
2019-05-30T08:01:30.587Z,38.90
2019-05-30T08:06:34.216Z,39.20
2019-05-30T08:11:39.580Z,40.10
2019-05-30T08:16:42.982Z,41.00
2019-05-30T08:21:46.494Z,41.00
2019-05-30T08:26:49.929Z,41.20
2019-05-30T08:31:53.393Z,41.70
2019-05-30T08:36:56.829Z,42.40
2019-05-30T08:42:00.346Z,42.10
2019-05-30T08:47:03.857Z,42.70
2019-05-30T08:52:07.372Z,42.90
2019-05-30T08:57:10.918Z,43.30
2019-05-30T09:02:14.411Z,43.10
2019-05-30T09:07:18.016Z,43.30
2019-05-30T09:12:21.532Z,43.10
2019-05-30T09:17:25.046Z,42.70
2019-05-30T09:22:28.514Z,43.50
2019-05-30T09:27:32.073Z,43.80
2019-05-30T09:32:35.624Z,43.80
2019-05-30T09:37:40.261Z,43.50
2019-05-30T09:42:44.837Z,43.90
2019-05-30T09:47:49.822Z,44.00
2019-05-30T09:52:54.561Z,43.20
2019-05-30T09:57:58.029Z,43.30
2019-05-30T10:03:01.590Z,44.00
2019-05-30T10:08:06.893Z,43.90
2019-05-30T10:13:12.073Z,43.10
2019-05-30T10:18:15.591Z,44.00
2019-05-30T10:23:19.106Z,44.00
2019-05-30T10:28:22.747Z,44.30
2019-05-30T10:33:26.270Z,44.00
2019-05-30T10:38:29.775Z,44.00
2019-05-30T10:43:33.262Z,41.30
2019-05-30T10:48:36.780Z,40.30
2019-05-30T10:53:40.296Z,41.70
2019-05-30T10:58:43.809Z,42.10
2019-05-30T11:03:48.659Z,42.70
2019-05-30T11:08:52.844Z,43.00
2019-05-30T11:13:57.307Z,42.50
2019-05-30T11:19:01.040Z,43.00
2019-05-30T11:24:04.552Z,43.50
2019-05-30T11:29:08.072Z,43.90
2019-05-30T11:34:11.580Z,43.90
2019-05-30T11:39:15.094Z,43.80
2019-05-30T11:44:18.605Z,43.70
2019-05-30T11:49:22.117Z,43.80
2019-05-30T11:54:25.682Z,43.80
2019-05-30T11:59:29.391Z,43.90
2019-05-30T12:04:32.865Z,43.90
2019-05-30T12:09:36.382Z,43.90
2019-05-30T12:14:39.858Z,43.90
2019-05-30T12:19:43.404Z,43.80
2019-05-30T12:24:46.923Z,43.70
2019-05-30T12:29:50.439Z,43.60
2019-05-30T12:34:54.346Z,43.40
2019-05-30T12:39:58.705Z,43.40
2019-05-30T12:45:06.694Z,43.10
2019-05-30T12:50:11.558Z,43.00
2019-05-30T12:55:15.096Z,43.00
2019-05-30T13:00:21.423Z,43.00
2019-05-30T13:05:24.995Z,43.70
2019-05-30T13:10:28.482Z,42.90
2019-05-30T13:15:32.022Z,42.90
2019-05-30T13:20:35.534Z,43.00
2019-05-30T13:25:39.049Z,43.00
2019-05-30T13:30:42.537Z,43.10
2019-05-30T13:35:46.179Z,43.20
2019-05-30T13:40:49.665Z,43.00
2019-05-30T13:45:53.129Z,43.10
2019-05-30T13:50:56.722Z,43.00
2019-05-30T13:56:01.370Z,42.80
2019-05-30T14:01:10.101Z,43.00
2019-05-30T14:06:11.279Z,42.90
2019-05-30T14:11:15.050Z,43.00
2019-05-30T14:16:18.485Z,42.90
2019-05-30T14:21:23.711Z,43.00
2019-05-30T14:26:27.260Z,43.10
2019-05-30T14:31:30.750Z,43.20
2019-05-30T14:36:34.286Z,43.20
2019-05-30T14:41:37.776Z,43.20
2019-05-30T14:46:41.417Z,43.20
2019-05-30T14:51:44.879Z,43.20
2019-05-30T14:56:48.445Z,43.20
2019-05-30T15:01:51.928Z,43.20
2019-05-30T15:06:55.446Z,43.20
2019-05-30T15:11:58.885Z,43.20
2019-05-30T15:17:02.366Z,43.20
2019-05-30T15:22:05.912Z,43.10
2019-05-30T15:27:10.083Z,43.20
2019-05-30T15:32:14.484Z,43.00
2019-05-30T15:37:18.068Z,43.10
2019-05-30T15:42:21.509Z,43.30
2019-05-30T15:47:24.990Z,43.30
2019-05-30T15:52:28.506Z,43.40
2019-05-30T15:57:32.052Z,43.40
2019-05-30T16:02:35.534Z,43.50
2019-05-30T16:07:39.003Z,43.50
2019-05-30T16:12:42.521Z,43.50
2019-05-30T16:17:47.022Z,43.50
2019-05-30T16:22:50.606Z,43.70
2019-05-30T16:27:54.117Z,43.60
2019-05-30T16:32:57.646Z,43.70
2019-05-30T16:38:02.225Z,43.80
2019-05-30T16:43:05.759Z,43.80
2019-05-30T16:48:09.201Z,43.90
2019-05-30T16:53:12.681Z,44.00
2019-05-30T16:58:17.691Z,43.90
2019-05-30T17:03:21.932Z,44.10
2019-05-30T17:08:26.341Z,44.10
2019-05-30T17:13:31.293Z,44.10
2019-05-30T17:18:35.068Z,44.20
2019-05-30T17:23:39.575Z,44.20
2019-05-30T17:28:43.118Z,44.40
2019-05-30T17:33:46.663Z,44.40
2019-05-30T17:38:50.146Z,44.50
2019-05-30T17:43:53.657Z,44.60
2019-05-30T17:48:57.157Z,44.70
2019-05-30T17:54:01.687Z,45.20
2019-05-30T17:59:05.254Z,45.20
2019-05-30T18:04:08.757Z,45.10
2019-05-30T18:09:14.030Z,45.20
2019-05-30T18:14:17.551Z,45.20
2019-05-30T18:19:21.187Z,45.30
2019-05-30T18:24:25.615Z,45.40
2019-05-30T18:29:30.122Z,45.50
2019-05-30T18:34:34.686Z,45.60
2019-05-30T18:39:38.353Z,45.60
2019-05-30T18:44:43.722Z,46.10
2019-05-30T18:49:47.226Z,45.60
2019-05-30T18:54:50.741Z,45.70
2019-05-30T18:59:54.358Z,46.10
2019-05-30T19:04:57.899Z,46.30
2019-05-30T19:10:01.516Z,46.30
2019-05-30T19:15:06.654Z,46.10
2019-05-30T19:20:10.194Z,46.20
2019-05-30T19:25:13.695Z,46.30
2019-05-30T19:30:18.131Z,46.40
2019-05-30T19:35:21.617Z,46.40
2019-05-30T19:40:25.133Z,46.40
2019-05-30T19:45:29.850Z,46.50
2019-05-30T19:50:34.577Z,46.60
2019-05-30T19:55:39.365Z,46.40
2019-05-30T20:00:57.557Z,46.40
2019-05-30T20:05:48.231Z,46.50
2019-05-30T20:10:51.875Z,46.60
2019-05-30T20:15:57.300Z,46.60
2019-05-30T20:21:00.648Z,46.70
2019-05-30T20:26:04.128Z,46.70
2019-05-30T20:31:07.649Z,46.80
2019-05-30T20:36:11.158Z,46.80
2019-05-30T20:41:14.700Z,46.80
2019-05-30T20:46:23.119Z,46.80
2019-05-30T20:51:23.541Z,46.90
2019-05-30T20:56:27.058Z,46.80
2019-05-30T21:01:30.599Z,46.80
2019-05-30T21:06:34.690Z,47.00
2019-05-30T21:11:39.890Z,47.00
2019-05-30T21:16:44.278Z,46.90
2019-05-30T21:21:47.913Z,47.00
2019-05-30T21:26:51.446Z,47.00
2019-05-30T21:31:55.002Z,47.00
2019-05-30T21:36:58.512Z,46.90
2019-05-30T21:42:02.062Z,47.00
2019-05-30T21:47:05.605Z,46.90
2019-05-30T21:52:09.090Z,46.90
2019-05-30T21:57:12.610Z,46.90
2019-05-30T22:02:16.117Z,46.90
2019-05-30T22:07:19.626Z,47.00
2019-05-30T22:12:23.146Z,47.10
2019-05-30T22:17:26.687Z,47.00
2019-05-30T22:22:30.174Z,47.00
2019-05-30T22:27:33.715Z,47.00
2019-05-30T22:32:37.168Z,47.00
2019-05-30T22:37:40.715Z,47.00
2019-05-30T22:42:44.187Z,47.00
2019-05-30T22:47:48.438Z,47.10
2019-05-30T22:52:53.035Z,47.20
2019-05-30T22:57:57.713Z,47.20
2019-05-30T23:03:01.254Z,47.20
2019-05-30T23:08:04.770Z,47.20
2019-05-30T23:13:08.311Z,47.30
2019-05-30T23:18:11.797Z,47.40
2019-05-30T23:23:16.394Z,47.30
2019-05-30T23:28:19.849Z,47.40
2019-05-30T23:33:23.362Z,47.40
2019-05-30T23:38:26.903Z,47.50
2019-05-30T23:43:30.392Z,47.60
2019-05-30T23:48:33.906Z,47.60
2019-05-30T23:53:37.446Z,47.60
2019-05-30T23:58:40.937Z,47.60
